Time;durP1;ratioP1;P1;durP2;ratioP2;P2;SDS_P1;SDS_P2;PMS_P1;PMS_P2;Temp;Humidity;BMP_temperature;BMP_pressure;BME280_temperature;BME280_humidity;BME280_pressure;Samples;Min_cycle;Max_cycle;Signal;HPM_P1;HPM_P2
2022/10/10 00:00:51;;;;;;;5.27;2.43;;;10.00;99.90;;;;;;5014263;28;20238;-54
2022/10/10 00:03:20;;;;;;;3.77;1.40;;;10.00;99.90;;;;;;5014874;28;20702;-54
2022/10/10 00:05:48;;;;;;;6.53;1.60;;;10.00;99.90;;;;;;5014586;28;20261;-55
2022/10/10 00:08:16;;;;;;;6.73;1.73;;;10.10;99.90;;;;;;5014805;28;20223;-55
2022/10/10 00:10:45;;;;;;;4.37;1.50;;;10.00;99.90;;;;;;5014369;28;20245;-55
2022/10/10 00:13:13;;;;;;;4.13;1.47;;;10.00;99.90;;;;;;5014417;28;20686;-54
2022/10/10 00:15:42;;;;;;;4.70;1.77;;;10.00;99.90;;;;;;5014532;28;20276;-55
2022/10/10 00:18:16;;;;;;;4.40;1.73;;;9.90;99.90;;;;;;5014080;28;20268;-54
2022/10/10 00:20:44;;;;;;;4.67;1.40;;;9.90;99.90;;;;;;5014013;28;20338;-53
2022/10/10 00:23:12;;;;;;;4.93;1.60;;;9.90;99.90;;;;;;5014592;28;20230;-53
2022/10/10 00:25:40;;;;;;;3.07;1.30;;;9.90;99.90;;;;;;5013963;28;20581;-54
2022/10/10 00:28:09;;;;;;;5.53;1.57;;;9.90;99.90;;;;;;5014279;28;20232;-54
2022/10/10 00:30:37;;;;;;;3.60;1.40;;;9.90;99.90;;;;;;5013799;28;20237;-54
2022/10/10 00:33:05;;;;;;;5.13;1.87;;;9.80;99.90;;;;;;5014047;28;20249;-54
2022/10/10 00:35:34;;;;;;;6.43;2.00;;;9.90;99.90;;;;;;5014144;28;20225;-54
2022/10/10 00:38:02;;;;;;;5.10;1.70;;;9.90;99.90;;;;;;5014252;28;20242;-53
2022/10/10 00:40:30;;;;;;;4.30;1.60;;;9.90;99.90;;;;;;5014058;28;20225;-54
2022/10/10 00:42:58;;;;;;;5.47;1.50;;;9.90;99.90;;;;;;5013938;28;20685;-54
2022/10/10 00:45:32;;;;;;;2.70;1.33;;;9.80;99.90;;;;;;5013969;28;20594;-52
2022/10/10 00:48:04;;;;;;;4.30;1.60;;;9.80;99.90;;;;;;5013600;28;20237;-54
2022/10/10 00:50:35;;;;;;;5.60;1.50;;;9.80;99.90;;;;;;5013630;28;20238;-54
2022/10/10 00:53:05;;;;;;;4.57;1.67;;;9.80;99.90;;;;;;5013482;28;20237;-54
2022/10/10 00:55:33;;;;;;;3.40;1.13;;;9.80;99.90;;;;;;5013667;28;20590;-54
2022/10/10 00:58:02;;;;;;;1.77;1.30;;;9.70;99.90;;;;;;5013385;28;20321;-53
2022/10/10 01:00:31;;;;;;;4.73;1.50;;;9.80;99.90;;;;;;5013192;28;20219;-54
2022/10/10 01:02:59;;;;;;;3.10;1.13;;;9.70;99.90;;;;;;5013375;28;20230;-54
2022/10/10 01:05:27;;;;;;;5.10;1.53;;;9.70;99.90;;;;;;5013587;28;20721;-54
2022/10/10 01:07:56;;;;;;;3.43;1.40;;;9.70;99.90;;;;;;5013732;28;20229;-54
2022/10/10 01:10:25;;;;;;;5.43;1.60;;;9.70;99.90;;;;;;5013274;28;20252;-53
2022/10/10 01:13:03;;;;;;;4.87;1.70;;;9.70;99.90;;;;;;5013316;28;20293;-53
2022/10/10 01:15:44;;;;;;;4.03;1.53;;;9.60;99.90;;;;;;5013489;28;20237;-53
2022/10/10 01:18:19;;;;;;;7.30;1.80;;;9.60;99.90;;;;;;5013396;28;20238;-54
2022/10/10 01:21:05;;;;;;;4.00;1.53;;;9.70;99.90;;;;;;5013062;28;20224;-54
2022/10/10 01:24:00;;;;;;;4.00;1.57;;;9.70;99.90;;;;;;5013065;28;20266;-54
2022/10/10 01:26:50;;;;;;;4.63;2.07;;;9.70;99.90;;;;;;5012665;28;20242;-54
2022/10/10 01:29:25;;;;;;;5.67;1.60;;;9.70;99.90;;;;;;5006509;28;20253;-52
2022/10/10 01:31:57;;;;;;;3.97;1.30;;;9.60;99.90;;;;;;5012222;28;20565;-54
2022/10/10 01:34:31;;;;;;;5.23;1.50;;;9.60;99.90;;;;;;5012905;28;20246;-53
2022/10/10 01:37:04;;;;;;;3.53;1.40;;;9.60;99.90;;;;;;5013370;28;20231;-53
2022/10/10 01:39:41;;;;;;;4.67;1.90;;;9.60;99.90;;;;;;5011019;28;20276;-53
2022/10/10 01:42:14;;;;;;;3.77;1.43;;;9.60;99.90;;;;;;5013106;28;20238;-54
2022/10/10 01:44:46;;;;;;;6.07;2.03;;;9.60;99.90;;;;;;5012821;28;20224;-53
2022/10/10 01:47:14;;;;;;;3.90;1.73;;;9.60;99.90;;;;;;5013176;28;20716;-55
2022/10/10 01:49:44;;;;;;;4.00;1.53;;;9.60;99.90;;;;;;5012787;28;20229;-54
2022/10/10 01:52:22;;;;;;;3.20;1.63;;;9.50;99.90;;;;;;5013200;28;20234;-54
2022/10/10 01:55:00;;;;;;;3.17;1.90;;;9.50;99.90;;;;;;5012917;28;20685;-54
2022/10/10 01:57:37;;;;;;;3.27;1.67;;;9.50;99.90;;;;;;5013765;28;20226;-54
2022/10/10 02:00:14;;;;;;;3.73;1.47;;;9.50;99.90;;;;;;5012814;28;20685;-53
2022/10/10 02:02:49;;;;;;;5.27;1.60;;;9.50;99.90;;;;;;4999293;28;20300;-54
2022/10/10 02:05:22;;;;;;;4.07;1.60;;;9.50;99.90;;;;;;4992988;28;20288;-55
2022/10/10 02:07:55;;;;;;;3.17;1.77;;;9.50;99.90;;;;;;4993101;28;20690;-53
2022/10/10 02:10:27;;;;;;;4.13;1.90;;;9.50;99.90;;;;;;4995056;28;20254;-52
2022/10/10 02:12:57;;;;;;;5.07;1.83;;;9.50;99.90;;;;;;4997403;28;20691;-53
2022/10/10 02:15:31;;;;;;;4.23;1.97;;;9.50;99.90;;;;;;5015010;28;20229;-53
2022/10/10 02:18:01;;;;;;;2.93;1.40;;;9.40;99.90;;;;;;5016526;28;20240;-53
2022/10/10 02:20:30;;;;;;;7.60;1.77;;;9.40;99.90;;;;;;5016627;28;20244;-53
2022/10/10 02:22:59;;;;;;;5.23;1.67;;;9.40;99.90;;;;;;5016210;28;20693;-54
2022/10/10 02:25:31;;;;;;;3.97;1.60;;;9.40;99.90;;;;;;5013056;28;20217;-53
2022/10/10 02:28:07;;;;;;;4.97;1.93;;;9.40;99.90;;;;;;5017557;28;20245;-53
2022/10/10 02:30:40;;;;;;;5.27;1.80;;;9.30;99.90;;;;;;5015990;28;20580;-54
2022/10/10 02:33:09;;;;;;;3.57;1.53;;;9.30;99.90;;;;;;5016725;28;20233;-52
2022/10/10 02:35:42;;;;;;;5.33;1.70;;;9.30;99.90;;;;;;5016177;28;20218;-54
2022/10/10 02:38:13;;;;;;;4.63;1.70;;;9.30;99.90;;;;;;5016564;28;20231;-53
2022/10/10 02:40:45;;;;;;;3.23;1.60;;;9.30;99.90;;;;;;5016152;28;20692;-53
2022/10/10 02:43:15;;;;;;;4.07;1.93;;;9.30;99.90;;;;;;5016413;28;20237;-53
2022/10/10 02:45:45;;;;;;;3.70;1.90;;;9.20;99.90;;;;;;5015882;28;20235;-55
2022/10/10 02:48:13;;;;;;;4.67;1.70;;;9.20;99.90;;;;;;5015804;28;20229;-54
2022/10/10 02:50:41;;;;;;;3.43;1.70;;;9.30;99.90;;;;;;5016131;28;20696;-53
2022/10/10 02:53:09;;;;;;;4.23;1.70;;;9.20;99.90;;;;;;5015403;28;20235;-52
2022/10/10 02:55:37;;;;;;;2.90;1.47;;;9.20;99.90;;;;;;5015771;28;20226;-54
2022/10/10 02:58:05;;;;;;;3.70;2.00;;;9.20;99.90;;;;;;5016206;28;20558;-54
2022/10/10 03:00:33;;;;;;;5.37;1.90;;;9.10;99.90;;;;;;5015351;28;20237;-54
2022/10/10 03:03:03;;;;;;;4.17;1.90;;;9.20;99.90;;;;;;5015826;28;20698;-54
2022/10/10 03:05:31;;;;;;;4.60;1.70;;;9.20;99.90;;;;;;5015451;28;20244;-53
2022/10/10 03:07:59;;;;;;;4.67;1.60;;;9.10;99.90;;;;;;5015668;28;20237;-53
2022/10/10 03:10:27;;;;;;;3.67;1.87;;;9.10;99.90;;;;;;5015309;28;20295;-53
2022/10/10 03:12:55;;;;;;;4.73;1.97;;;9.10;99.90;;;;;;5015919;28;20234;-52
2022/10/10 03:15:23;;;;;;;6.67;1.90;;;9.20;99.90;;;;;;5015916;28;20283;-54
2022/10/10 03:17:51;;;;;;;4.00;1.63;;;9.10;99.90;;;;;;5015653;28;20230;-53
2022/10/10 03:20:20;;;;;;;4.40;1.40;;;9.20;99.90;;;;;;5015211;28;20233;-53
2022/10/10 03:22:48;;;;;;;5.47;1.77;;;9.10;99.90;;;;;;5014980;28;20280;-54
2022/10/10 03:25:17;;;;;;;4.27;2.00;;;9.10;99.90;;;;;;5015555;28;20226;-54
2022/10/10 03:27:45;;;;;;;3.37;1.70;;;9.10;99.90;;;;;;5015816;28;20605;-54
2022/10/10 03:30:13;;;;;;;3.57;1.60;;;9.10;99.90;;;;;;5015201;28;20760;-54
2022/10/10 03:32:41;;;;;;;5.63;1.90;;;9.10;99.90;;;;;;5013958;28;20234;-54
2022/10/10 03:35:09;;;;;;;4.57;1.80;;;9.10;99.90;;;;;;5007034;28;20233;-53
2022/10/10 03:37:39;;;;;;;3.27;1.60;;;9.10;99.90;;;;;;5014519;28;20226;-53
2022/10/10 03:40:07;;;;;;;4.07;1.77;;;9.00;99.90;;;;;;5014922;28;20685;-54
2022/10/10 03:42:35;;;;;;;4.33;1.90;;;9.00;99.90;;;;;;5014846;28;20319;-54
2022/10/10 03:45:04;;;;;;;3.63;1.53;;;9.00;99.90;;;;;;5012560;28;20233;-52
2022/10/10 03:47:32;;;;;;;3.03;1.60;;;9.00;99.90;;;;;;5014177;28;20698;-54
2022/10/10 03:50:00;;;;;;;5.43;1.80;;;9.00;99.90;;;;;;5014533;28;20229;-53
2022/10/10 03:52:28;;;;;;;4.83;2.40;;;9.00;99.90;;;;;;5013894;28;20221;-54
2022/10/10 03:54:58;;;;;;;6.57;1.70;;;9.00;99.90;;;;;;5014635;28;20577;-53
2022/10/10 03:57:26;;;;;;;4.80;1.70;;;9.00;99.90;;;;;;5015303;28;20221;-53
2022/10/10 03:59:54;;;;;;;4.43;1.60;;;9.00;99.90;;;;;;5014686;28;20231;-54
2022/10/10 04:02:22;;;;;;;4.43;1.80;;;9.00;99.90;;;;;;5013884;28;20733;-55
2022/10/10 04:04:50;;;;;;;5.47;1.90;;;9.00;99.90;;;;;;5014332;28;20775;-52
2022/10/10 04:07:19;;;;;;;3.57;1.77;;;9.00;99.90;;;;;;5014827;28;20257;-54
2022/10/10 04:09:47;;;;;;;4.20;1.97;;;8.90;99.90;;;;;;5014685;28;20226;-53
2022/10/10 04:12:16;;;;;;;4.77;1.87;;;8.90;99.90;;;;;;5014276;28;20249;-53
2022/10/10 04:14:44;;;;;;;4.00;1.83;;;8.90;99.90;;;;;;5013931;28;20233;-53
2022/10/10 04:17:12;;;;;;;5.13;1.97;;;8.90;99.90;;;;;;5013799;28;20280;-54
2022/10/10 04:19:40;;;;;;;3.77;2.00;;;8.80;99.90;;;;;;5014018;28;20233;-52
2022/10/10 04:22:09;;;;;;;3.73;1.90;;;8.80;99.90;;;;;;5014032;28;20260;-53
2022/10/10 04:24:38;;;;;;;4.10;1.60;;;8.80;99.90;;;;;;5014061;28;20861;-53
2022/10/10 04:27:06;;;;;;;4.07;1.73;;;8.80;99.90;;;;;;5014827;28;20233;-54
2022/10/10 04:29:36;;;;;;;2.73;1.70;;;8.90;99.90;;;;;;5011085;28;20234;-53
2022/10/10 04:32:04;;;;;;;3.73;1.93;;;8.90;99.90;;;;;;5013082;28;20287;-53
2022/10/10 04:34:32;;;;;;;3.07;1.90;;;8.80;99.90;;;;;;5013130;28;20225;-53
2022/10/10 04:37:00;;;;;;;5.03;1.83;;;8.80;99.90;;;;;;5013933;28;20287;-53
2022/10/10 04:39:28;;;;;;;3.43;2.00;;;8.80;99.90;;;;;;5013799;28;20232;-55
2022/10/10 04:41:56;;;;;;;4.67;2.40;;;8.80;99.90;;;;;;5014232;28;20747;-53
2022/10/10 04:44:24;;;;;;;4.10;2.30;;;8.80;99.90;;;;;;5013824;28;20229;-53
2022/10/10 04:46:54;;;;;;;6.00;2.20;;;8.80;99.90;;;;;;5014004;28;20241;-53
2022/10/10 04:49:22;;;;;;;5.73;2.37;;;8.90;99.90;;;;;;5013984;28;20697;-53
2022/10/10 04:51:50;;;;;;;4.37;2.20;;;8.80;99.90;;;;;;5014050;28;20581;-53
2022/10/10 04:54:18;;;;;;;3.40;2.20;;;8.80;99.90;;;;;;5013528;28;20230;-52
2022/10/10 04:56:46;;;;;;;3.20;2.13;;;8.80;99.90;;;;;;5014049;28;20593;-52
2022/10/10 04:59:14;;;;;;;4.80;2.10;;;8.70;99.90;;;;;;5013396;28;20227;-52
2022/10/10 05:01:42;;;;;;;3.00;2.07;;;8.80;99.90;;;;;;5013060;28;20242;-54
2022/10/10 05:04:13;;;;;;;4.23;2.27;;;8.80;99.90;;;;;;5013405;28;20227;-52
2022/10/10 05:06:41;;;;;;;6.47;2.63;;;8.80;99.90;;;;;;5013226;28;20612;-52
2022/10/10 05:09:09;;;;;;;4.00;2.13;;;8.80;99.90;;;;;;5013134;28;20233;-53
2022/10/10 05:11:37;;;;;;;5.57;2.23;;;8.80;99.90;;;;;;5013168;28;20648;-52
2022/10/10 05:14:05;;;;;;;4.43;2.30;;;8.70;99.90;;;;;;5013769;28;20681;-52
2022/10/10 05:16:33;;;;;;;3.50;2.23;;;8.70;99.90;;;;;;5013241;28;20221;-54
2022/10/10 05:19:01;;;;;;;5.07;2.20;;;8.70;99.90;;;;;;5013429;28;20744;-54
2022/10/10 05:21:31;;;;;;;8.27;2.80;;;8.70;99.90;;;;;;5011681;28;20222;-54
2022/10/10 05:23:59;;;;;;;4.30;2.27;;;8.70;99.90;;;;;;5013377;28;20701;-51
2022/10/10 05:26:27;;;;;;;7.00;2.23;;;8.70;99.90;;;;;;5013729;28;20256;-53
2022/10/10 05:28:55;;;;;;;4.50;2.60;;;8.70;99.90;;;;;;5012405;28;20231;-52
2022/10/10 05:31:23;;;;;;;3.90;2.10;;;8.70;99.90;;;;;;5012167;28;20767;-53
2022/10/10 05:33:51;;;;;;;5.33;2.50;;;8.70;99.90;;;;;;5012852;28;20669;-52
2022/10/10 05:36:19;;;;;;;3.57;2.10;;;8.60;99.90;;;;;;5012779;28;20316;-53
2022/10/10 05:38:49;;;;;;;4.03;2.40;;;8.60;99.90;;;;;;5012250;28;20228;-53
2022/10/10 05:41:17;;;;;;;6.50;2.43;;;8.60;99.90;;;;;;5012161;28;20317;-53
2022/10/10 05:43:45;;;;;;;3.30;2.03;;;8.60;99.90;;;;;;5011792;28;20288;-53
2022/10/10 05:46:13;;;;;;;4.97;2.47;;;8.60;99.90;;;;;;5011448;28;20226;-53
2022/10/10 05:48:41;;;;;;;5.80;2.50;;;8.70;99.90;;;;;;5013270;28;20233;-53
2022/10/10 05:51:09;;;;;;;3.23;2.10;;;8.70;99.90;;;;;;5015971;28;20695;-51
2022/10/10 05:53:38;;;;;;;4.47;2.00;;;8.60;99.90;;;;;;5011676;28;20251;-53
2022/10/10 05:56:08;;;;;;;6.53;2.27;;;8.70;99.90;;;;;;5010776;28;20239;-54
2022/10/10 05:58:37;;;;;;;3.93;2.20;;;8.60;99.90;;;;;;5012474;28;20275;-52
2022/10/10 06:01:07;;;;;;;3.70;2.20;;;8.70;99.90;;;;;;5013114;28;20225;-52
2022/10/10 06:03:37;;;;;;;4.90;2.63;;;8.70;99.90;;;;;;5006866;28;20228;-54
2022/10/10 06:06:06;;;;;;;7.67;2.80;;;8.70;99.90;;;;;;5016249;28;20232;-53
2022/10/10 06:08:34;;;;;;;6.53;3.10;;;8.70;99.90;;;;;;5011960;28;20319;-53
2022/10/10 06:11:05;;;;;;;3.93;2.40;;;8.70;99.90;;;;;;5013024;28;20717;-53
2022/10/10 06:13:35;;;;;;;4.90;2.67;;;8.70;99.90;;;;;;5012716;28;20233;-51
2022/10/10 06:16:04;;;;;;;3.47;2.30;;;8.70;99.90;;;;;;5011507;28;20228;-53
2022/10/10 06:18:33;;;;;;;6.17;2.47;;;8.80;99.90;;;;;;5019947;28;20233;-53
2022/10/10 06:21:03;;;;;;;3.53;2.43;;;8.80;99.90;;;;;;5017366;28;20229;-53
2022/10/10 06:23:31;;;;;;;6.70;2.30;;;8.90;99.90;;;;;;5013398;28;20744;-53
2022/10/10 06:26:00;;;;;;;5.10;2.13;;;9.00;99.90;;;;;;5016535;28;20232;-52
2022/10/10 06:28:30;;;;;;;4.00;2.20;;;9.00;99.90;;;;;;5011021;28;20308;-51
2022/10/10 06:31:03;;;;;;;8.03;2.57;;;9.00;99.90;;;;;;5011330;28;20326;-53
2022/10/10 06:33:33;;;;;;;5.67;2.93;;;9.10;99.90;;;;;;5014251;28;20243;-52
2022/10/10 06:36:05;;;;;;;5.17;2.30;;;9.20;99.90;;;;;;5013794;28;20283;-52
2022/10/10 06:38:37;;;;;;;3.43;2.13;;;9.20;99.90;;;;;;5015425;28;20216;-52
2022/10/10 06:41:08;;;;;;;5.17;2.37;;;9.30;99.90;;;;;;5011027;28;20238;-53
2022/10/10 06:43:37;;;;;;;5.60;2.10;;;9.40;99.90;;;;;;5014532;28;20242;-52
2022/10/10 06:46:09;;;;;;;4.53;2.60;;;9.50;99.90;;;;;;5009992;28;20218;-53
2022/10/10 06:48:40;;;;;;;4.87;2.40;;;9.60;99.90;;;;;;5010353;28;20249;-54
2022/10/10 06:51:12;;;;;;;5.43;2.60;;;9.70;99.90;;;;;;5011939;28;20778;-54
2022/10/10 06:53:42;;;;;;;4.83;2.13;;;9.80;99.90;;;;;;5016264;28;20624;-53
2022/10/10 06:56:16;;;;;;;5.30;2.70;;;9.90;99.90;;;;;;5011381;28;20275;-54
2022/10/10 06:58:44;;;;;;;7.77;2.70;;;10.00;99.90;;;;;;5012882;28;20244;-54
2022/10/10 07:01:16;;;;;;;3.07;2.00;;;10.00;99.90;;;;;;5001505;28;20242;-55
2022/10/10 07:03:45;;;;;;;5.43;2.57;;;10.10;99.90;;;;;;4985750;28;21339;-55
2022/10/10 07:06:14;;;;;;;3.90;2.30;;;10.20;99.90;;;;;;4984358;28;20235;-53
2022/10/10 07:08:42;;;;;;;4.07;2.50;;;10.30;99.90;;;;;;4986931;28;20317;-54
2022/10/10 07:11:10;;;;;;;4.30;2.30;;;10.50;99.90;;;;;;4987175;28;20337;-55
2022/10/10 07:13:38;;;;;;;7.83;2.30;;;10.50;99.90;;;;;;4987312;28;20244;-53
2022/10/10 07:16:07;;;;;;;4.87;2.20;;;10.60;99.90;;;;;;4986215;28;20231;-53
2022/10/10 07:18:36;;;;;;;3.63;2.10;;;10.70;99.90;;;;;;4987411;28;20276;-54
2022/10/10 07:21:05;;;;;;;3.80;2.13;;;10.80;99.90;;;;;;4988282;28;20290;-54
2022/10/10 07:23:35;;;;;;;4.90;2.53;;;10.90;99.90;;;;;;4991554;28;20239;-53
2022/10/10 07:26:05;;;;;;;6.53;2.60;;;11.10;99.90;;;;;;4994142;28;20595;-51
2022/10/10 07:28:34;;;;;;;3.83;2.37;;;11.10;99.90;;;;;;4990630;28;20232;-53
2022/10/10 07:31:04;;;;;;;2.50;2.23;;;11.20;99.90;;;;;;4987047;28;20279;-54
2022/10/10 07:33:34;;;;;;;3.93;2.00;;;11.30;99.90;;;;;;4987247;28;20220;-53
2022/10/10 07:36:04;;;;;;;3.67;2.07;;;11.50;99.90;;;;;;4986268;28;20700;-56
2022/10/10 07:38:32;;;;;;;3.87;2.40;;;11.70;99.90;;;;;;4987207;28;20573;-53
2022/10/10 07:41:01;;;;;;;4.67;2.27;;;11.80;99.90;;;;;;4986798;28;20235;-54
2022/10/10 07:43:29;;;;;;;4.53;2.30;;;12.00;99.90;;;;;;4986975;28;20228;-53
2022/10/10 07:45:57;;;;;;;5.83;2.20;;;12.10;99.90;;;;;;4985477;28;20241;-56
2022/10/10 07:48:25;;;;;;;3.73;2.47;;;12.20;99.90;;;;;;4986967;28;20719;-54
2022/10/10 07:50:53;;;;;;;7.33;2.50;;;12.30;99.90;;;;;;4986876;28;20235;-54
2022/10/10 07:53:22;;;;;;;5.20;2.07;;;12.40;99.90;;;;;;4986836;28;20704;-55
2022/10/10 07:55:51;;;;;;;5.50;2.30;;;12.60;99.90;;;;;;4985423;28;20310;-55
2022/10/10 07:58:19;;;;;;;5.87;2.53;;;12.80;99.90;;;;;;4984494;28;20578;-54
2022/10/10 08:00:47;;;;;;;3.80;2.13;;;12.90;99.90;;;;;;4984793;28;20256;-55
2022/10/10 08:03:15;;;;;;;5.90;2.20;;;13.00;99.90;;;;;;4985239;28;20663;-54
2022/10/10 08:05:45;;;;;;;4.53;2.40;;;13.00;99.90;;;;;;4984212;28;20244;-54
2022/10/10 08:08:13;;;;;;;4.77;2.33;;;13.20;99.90;;;;;;4984279;28;20783;-54
2022/10/10 08:10:44;;;;;;;3.53;2.23;;;13.30;99.90;;;;;;4985100;28;20257;-55
2022/10/10 08:13:12;;;;;;;7.77;2.53;;;13.50;99.90;;;;;;4986480;28;20244;-55
2022/10/10 08:15:40;;;;;;;4.03;2.40;;;13.50;99.90;;;;;;4985297;28;20752;-54
2022/10/10 08:18:08;;;;;;;4.27;2.00;;;13.70;99.90;;;;;;4987024;28;20241;-55
2022/10/10 08:20:36;;;;;;;6.83;2.63;;;13.80;99.90;;;;;;4984559;28;20229;-56
2022/10/10 08:23:04;;;;;;;3.57;2.20;;;14.00;99.90;;;;;;4984904;28;20228;-55
2022/10/10 08:25:32;;;;;;;4.97;2.17;;;14.20;99.90;;;;;;4983987;28;20240;-55
2022/10/10 08:28:02;;;;;;;3.90;2.37;;;14.50;99.90;;;;;;4984686;28;20232;-55
2022/10/10 08:30:30;;;;;;;6.13;2.30;;;14.70;99.90;;;;;;4983946;28;20256;-55
2022/10/10 08:32:58;;;;;;;5.27;2.23;;;14.80;99.90;;;;;;4984634;28;20229;-54
2022/10/10 08:35:26;;;;;;;4.23;2.50;;;14.90;99.90;;;;;;4983086;28;20232;-54
2022/10/10 08:37:54;;;;;;;5.40;2.93;;;15.00;99.90;;;;;;4984921;28;20234;-55
2022/10/10 08:40:27;;;;;;;7.13;3.87;;;14.90;99.90;;;;;;4985234;28;20598;-55
2022/10/10 08:43:00;;;;;;;4.00;3.13;;;15.00;99.90;;;;;;4985770;28;20233;-55
2022/10/10 08:45:33;;;;;;;4.97;3.03;;;15.10;99.90;;;;;;4984476;28;20284;-55
2022/10/10 08:48:04;;;;;;;3.47;2.63;;;15.20;99.90;;;;;;4986369;28;20288;-56
2022/10/10 08:50:36;;;;;;;5.27;2.40;;;15.40;99.90;;;;;;4986023;28;20241;-55
2022/10/10 08:53:09;;;;;;;5.57;2.30;;;15.50;99.90;;;;;;4986010;28;20623;-56
2022/10/10 08:55:42;;;;;;;6.17;2.50;;;15.50;99.90;;;;;;4984496;28;20230;-56
2022/10/10 08:58:16;;;;;;;6.23;2.20;;;15.60;99.90;;;;;;4985560;28;20237;-54
2022/10/10 09:00:48;;;;;;;3.47;2.40;;;15.90;99.90;;;;;;4984572;28;20256;-56
2022/10/10 09:03:24;;;;;;;6.27;2.80;;;15.90;99.90;;;;;;4983832;28;20593;-55
2022/10/10 09:06:07;;;;;;;5.07;2.57;;;16.00;99.90;;;;;;4982571;28;20236;-55
2022/10/10 09:08:47;;;;;;;4.50;2.50;;;16.10;99.90;;;;;;4984050;28;20241;-56
2022/10/10 09:11:26;;;;;;;4.13;2.30;;;16.30;99.90;;;;;;4984678;28;20286;-55
2022/10/10 09:14:06;;;;;;;5.00;2.47;;;16.20;99.90;;;;;;4984341;28;20856;-54
2022/10/10 09:16:43;;;;;;;5.03;2.93;;;16.30;99.90;;;;;;4982585;28;20829;-55
2022/10/10 09:19:23;;;;;;;7.63;2.50;;;16.40;99.90;;;;;;4984925;28;20229;-55
2022/10/10 09:21:56;;;;;;;5.10;2.73;;;16.50;99.90;;;;;;4985731;28;20237;-55
2022/10/10 09:24:28;;;;;;;4.23;2.50;;;16.50;99.90;;;;;;4983866;28;20230;-56
2022/10/10 09:27:02;;;;;;;4.17;3.00;;;16.50;99.90;;;;;;4982934;28;20226;-55
2022/10/10 09:29:37;;;;;;;6.33;3.03;;;16.70;99.90;;;;;;4983915;28;20229;-55
2022/10/10 09:32:11;;;;;;;5.70;2.90;;;16.90;99.90;;;;;;4984443;28;20602;-55
2022/10/10 09:34:42;;;;;;;5.67;3.00;;;16.80;99.90;;;;;;4983424;28;20245;-57
2022/10/10 09:37:15;;;;;;;3.70;2.47;;;17.10;99.90;;;;;;4982898;28;20233;-55
2022/10/10 09:40:00;;;;;;;2.90;2.20;;;17.40;99.90;;;;;;4984724;28;20234;-56
2022/10/10 09:42:34;;;;;;;3.17;2.20;;;17.50;99.90;;;;;;4984410;28;20704;-55
2022/10/10 09:45:03;;;;;;;4.07;2.70;;;17.40;99.90;;;;;;4979722;28;20241;-55
2022/10/10 09:47:33;;;;;;;4.73;2.70;;;17.30;99.90;;;;;;4983121;28;20218;-57
2022/10/10 09:50:01;;;;;;;5.37;2.43;;;17.50;99.90;;;;;;4983728;28;20237;-56
2022/10/10 09:52:34;;;;;;;5.60;3.20;;;17.50;99.90;;;;;;4984217;28;20229;-56
2022/10/10 09:55:05;;;;;;;6.20;2.87;;;17.40;99.90;;;;;;4983116;28;20229;-55
2022/10/10 09:57:38;;;;;;;4.23;2.30;;;17.40;99.90;;;;;;4984563;28;20226;-56
2022/10/10 10:00:32;;;;;;;6.70;2.87;;;17.50;99.90;;;;;;4984372;28;20761;-56
2022/10/10 10:03:15;;;;;;;3.17;2.50;;;17.90;99.90;;;;;;4984856;28;20292;-56
2022/10/10 10:05:54;;;;;;;6.33;2.43;;;17.70;99.90;;;;;;4982669;28;20243;-56
2022/10/10 10:08:26;;;;;;;3.30;2.30;;;17.90;99.90;;;;;;4985621;28;20260;-55
2022/10/10 10:10:57;;;;;;;3.43;2.30;;;17.90;99.90;;;;;;4984880;28;21266;-56
2022/10/10 10:13:28;;;;;;;3.40;2.30;;;17.70;99.90;;;;;;4984942;28;20234;-55
2022/10/10 10:16:04;;;;;;;6.20;2.30;;;17.70;99.90;;;;;;4983588;28;20237;-57
2022/10/10 10:18:39;;;;;;;4.60;2.73;;;17.80;99.90;;;;;;4983546;28;20237;-56
2022/10/10 10:21:25;;;;;;;3.87;2.37;;;18.10;99.90;;;;;;4984554;28;20231;-56
2022/10/10 10:23:57;;;;;;;2.77;2.43;;;18.40;99.90;;;;;;4983262;28;20286;-56
2022/10/10 10:26:29;;;;;;;5.97;2.70;;;18.30;99.90;;;;;;4983520;28;20702;-55
2022/10/10 10:28:58;;;;;;;4.30;2.57;;;18.10;99.90;;;;;;4983420;28;20238;-55
2022/10/10 10:31:53;;;;;;;3.57;2.17;;;18.10;99.90;;;;;;4982757;28;20361;-55
2022/10/10 10:34:48;;;;;;;4.80;2.50;;;18.00;99.90;;;;;;4993702;28;20261;-55
2022/10/10 10:37:22;;;;;;;3.47;2.57;;;18.10;99.90;;;;;;4996264;28;20687;-55
2022/10/10 10:40:17;;;;;;;3.27;2.37;;;18.30;99.90;;;;;;4995313;28;20699;-56
2022/10/10 10:43:14;;;;;;;4.20;2.30;;;18.20;99.90;;;;;;4991104;28;20240;-55
2022/10/10 10:45:53;;;;;;;5.07;2.63;;;18.30;99.90;;;;;;4960844;28;20695;-57
2022/10/10 10:48:28;;;;;;;5.40;2.37;;;18.20;99.90;;;;;;4987027;28;20237;-57
2022/10/10 10:51:02;;;;;;;4.10;2.47;;;18.20;99.90;;;;;;4985672;28;20243;-57
2022/10/10 10:53:39;;;;;;;4.10;2.87;;;18.00;99.90;;;;;;4985929;28;20233;-56
2022/10/10 10:56:19;;;;;;;5.70;2.53;;;18.20;99.90;;;;;;4986147;28;20240;-55
2022/10/10 10:59:02;;;;;;;4.57;3.20;;;18.20;99.90;;;;;;4987412;28;20231;-56
2022/10/10 11:01:56;;;;;;;5.50;2.73;;;18.20;99.90;;;;;;4987633;28;20243;-55
2022/10/10 11:04:55;;;;;;;7.40;2.40;;;18.50;99.90;;;;;;4984683;28;20778;-56
2022/10/10 11:07:53;;;;;;;5.70;2.57;;;18.80;99.90;;;;;;4985939;28;20685;-56
2022/10/10 11:10:30;;;;;;;5.50;2.47;;;19.20;99.90;;;;;;4986020;28;20246;-57
2022/10/10 11:13:07;;;;;;;6.27;2.63;;;19.20;99.90;;;;;;4986695;28;20286;-58
2022/10/10 11:15:41;;;;;;;3.70;2.47;;;18.90;99.90;;;;;;4984304;28;20230;-56
2022/10/10 11:18:35;;;;;;;5.17;2.80;;;18.70;99.90;;;;;;4987090;28;20236;-57
2022/10/10 11:21:09;;;;;;;6.43;3.20;;;18.60;99.90;;;;;;4986412;28;20270;-55
2022/10/10 11:23:43;;;;;;;4.10;2.87;;;18.50;99.90;;;;;;4985913;28;20236;-56
2022/10/10 11:26:18;;;;;;;5.63;3.13;;;18.60;99.90;;;;;;4983950;28;20232;-56
2022/10/10 11:28:51;;;;;;;4.43;2.70;;;18.70;99.90;;;;;;4985625;28;20236;-56
2022/10/10 11:31:24;;;;;;;4.90;3.03;;;18.90;99.90;;;;;;4985963;28;20247;-57
2022/10/10 11:33:56;;;;;;;5.20;2.83;;;19.10;99.90;;;;;;4985502;28;20228;-58
2022/10/10 11:36:28;;;;;;;4.57;2.87;;;19.30;99.90;;;;;;4986610;28;20275;-57
2022/10/10 11:39:03;;;;;;;6.23;2.90;;;19.20;99.90;;;;;;4986449;28;20247;-56
2022/10/10 11:41:37;;;;;;;5.47;3.10;;;19.10;99.90;;;;;;4986933;28;20630;-57
2022/10/10 11:44:12;;;;;;;5.87;3.37;;;18.60;99.90;;;;;;4994400;28;20233;-56
2022/10/10 11:46:45;;;;;;;5.83;3.27;;;18.30;99.90;;;;;;4992256;28;20231;-56
2022/10/10 11:49:20;;;;;;;7.40;3.20;;;18.20;99.90;;;;;;4994118;28;20294;-55
2022/10/10 11:52:13;;;;;;;4.57;2.80;;;18.20;99.90;;;;;;4992281;28;20243;-57
2022/10/10 11:55:10;;;;;;;5.60;3.47;;;18.10;99.90;;;;;;4993237;28;20235;-55
2022/10/10 11:57:43;;;;;;;5.47;2.73;;;18.10;99.90;;;;;;4993138;28;20227;-55
2022/10/10 12:00:14;;;;;;;6.70;3.13;;;18.10;99.90;;;;;;4993993;28;20688;-56
2022/10/10 12:02:44;;;;;;;7.77;3.30;;;18.10;99.90;;;;;;4993823;28;20232;-56
2022/10/10 12:05:21;;;;;;;6.50;3.70;;;18.10;99.90;;;;;;4991995;28;20615;-56
2022/10/10 12:08:04;;;;;;;7.33;3.63;;;18.10;99.90;;;;;;4992031;28;20243;-56
2022/10/10 12:10:38;;;;;;;5.27;3.87;;;18.20;99.90;;;;;;4991570;28;20244;-55
2022/10/10 12:13:27;;;;;;;5.30;3.10;;;18.10;99.90;;;;;;4991383;28;20283;-56
2022/10/10 12:15:58;;;;;;;6.53;3.23;;;18.20;99.90;;;;;;4993712;28;20228;-58
2022/10/10 12:18:30;;;;;;;6.50;3.23;;;18.20;99.90;;;;;;4989322;28;20230;-57
2022/10/10 12:21:10;;;;;;;6.70;3.33;;;18.10;99.90;;;;;;4992469;28;20236;-56
2022/10/10 12:23:41;;;;;;;10.07;3.23;;;18.20;99.90;;;;;;4994119;28;20238;-56
2022/10/10 12:26:23;;;;;;;6.70;3.40;;;18.20;99.90;;;;;;4992128;28;20247;-55
2022/10/10 12:29:04;;;;;;;7.00;3.63;;;18.20;99.90;;;;;;4993699;28;20235;-56
2022/10/10 12:31:35;;;;;;;6.27;3.37;;;18.20;99.90;;;;;;4989902;28;20227;-56
2022/10/10 12:34:24;;;;;;;5.47;3.27;;;18.10;99.90;;;;;;4992765;28;20229;-55
2022/10/10 12:37:10;;;;;;;5.97;3.40;;;18.10;99.90;;;;;;4992487;28;20230;-56
2022/10/10 12:39:59;;;;;;;5.33;3.37;;;18.00;99.90;;;;;;4989652;28;20226;-56
2022/10/10 12:42:34;;;;;;;4.57;3.03;;;18.10;99.90;;;;;;4992542;28;20223;-55
2022/10/10 12:45:02;;;;;;;6.27;3.00;;;18.10;99.90;;;;;;4992871;28;20230;-56
2022/10/10 12:47:41;;;;;;;10.47;3.50;;;18.10;99.90;;;;;;4993474;28;20236;-56
2022/10/10 12:50:33;;;;;;;5.30;3.20;;;18.00;99.90;;;;;;4991455;28;20228;-56
2022/10/10 12:53:04;;;;;;;5.80;3.20;;;18.10;99.90;;;;;;4992901;28;20315;-56
2022/10/10 12:55:40;;;;;;;5.13;3.20;;;18.20;99.90;;;;;;4993093;28;20228;-56
2022/10/10 12:58:16;;;;;;;6.30;3.40;;;18.20;99.90;;;;;;4991427;28;20243;-56
2022/10/10 13:00:56;;;;;;;4.23;2.83;;;18.30;99.90;;;;;;4991159;28;20720;-55
2022/10/10 13:03:29;;;;;;;6.60;3.50;;;18.30;99.90;;;;;;4993592;28;20238;-55
2022/10/10 13:06:03;;;;;;;6.57;3.60;;;18.30;99.90;;;;;;4993923;28;20665;-56
2022/10/10 13:08:31;;;;;;;6.27;3.50;;;18.20;99.90;;;;;;4988174;28;20608;-56
2022/10/10 13:11:05;;;;;;;5.43;3.33;;;18.20;99.90;;;;;;4992634;28;20653;-56
2022/10/10 13:13:35;;;;;;;8.23;3.80;;;18.10;99.90;;;;;;4990601;28;20234;-56
2022/10/10 13:16:08;;;;;;;5.93;3.40;;;17.90;99.90;;;;;;4993781;28;20231;-56
2022/10/10 13:18:39;;;;;;;8.20;3.00;;;17.90;99.90;;;;;;4991548;28;20237;-56